createdAt,value
2023-03-19T00:01:53.473Z,100883.84
2023-03-19T00:04:24.225Z,100889.03
2023-03-19T00:06:51.965Z,100889.06
2023-03-19T00:09:20.641Z,100887.31
2023-03-19T00:11:48.742Z,100887.31
2023-03-19T00:14:17.605Z,100882.16
2023-03-19T00:16:45.380Z,100876.94
2023-03-19T00:19:12.938Z,100880.38
2023-03-19T00:21:41.749Z,100882.97
2023-03-19T00:24:09.960Z,100885.59
2023-03-19T00:26:38.504Z,100878.66
2023-03-19T00:29:06.573Z,100883.00
2023-03-19T00:31:34.754Z,100878.69
2023-03-19T00:34:03.218Z,100890.75
2023-03-19T00:36:31.128Z,100884.72
2023-03-19T00:38:59.961Z,100886.44
2023-03-19T00:41:27.511Z,100889.88
2023-03-19T00:43:56.314Z,100892.47
2023-03-19T00:46:23.971Z,100887.25
2023-03-19T00:48:55.613Z,100890.69
2023-03-19T00:51:24.585Z,100882.09
2023-03-19T00:53:52.495Z,100890.72
2023-03-19T00:56:21.755Z,100903.66
2023-03-19T00:58:49.194Z,100888.13
2023-03-19T01:01:18.884Z,100897.56
2023-03-19T01:03:47.156Z,100906.22
2023-03-19T01:06:14.750Z,100894.13
2023-03-19T01:08:42.473Z,100895.81
2023-03-19T01:11:12.337Z,100892.31
2023-03-19T01:13:42.088Z,100900.44
2023-03-19T01:16:10.107Z,100901.69
2023-03-19T01:18:37.929Z,100900.03
2023-03-19T01:21:06.273Z,100894.91
2023-03-19T01:23:33.800Z,100898.41
2023-03-19T01:26:01.736Z,100905.28
2023-03-19T01:28:29.244Z,100899.22
2023-03-19T01:31:01.856Z,100907.00
2023-03-19T01:33:29.441Z,100898.41
2023-03-19T01:35:58.022Z,100906.16
2023-03-19T01:38:25.508Z,100905.34
2023-03-19T01:40:53.248Z,100909.50
2023-03-19T01:43:22.656Z,100910.41
2023-03-19T01:45:52.490Z,100911.22
2023-03-19T01:48:28.561Z,100911.19
2023-03-19T01:50:57.588Z,100914.63
2023-03-19T01:53:28.820Z,100921.47
2023-03-19T01:56:00.558Z,100921.56
2023-03-19T01:58:28.770Z,100918.94
2023-03-19T02:00:57.157Z,100919.75
2023-03-19T02:03:27.596Z,100921.44
2023-03-19T02:05:57.426Z,100911.94
2023-03-19T02:08:25.889Z,100900.75
2023-03-19T02:10:56.098Z,100911.09
2023-03-19T02:13:24.324Z,100905.97
2023-03-19T02:15:51.969Z,100893.09
2023-03-19T02:18:19.924Z,100896.59
2023-03-19T02:20:55.799Z,100887.00
2023-03-19T02:23:33.511Z,100893.81
2023-03-19T02:26:07.618Z,100895.69
2023-03-19T02:28:37.649Z,100897.19
2023-03-19T02:31:05.762Z,100903.34
2023-03-19T02:33:33.961Z,100900.56
2023-03-19T02:36:03.779Z,100902.47
2023-03-19T02:38:34.633Z,100905.88
2023-03-19T02:41:04.557Z,100893.00
2023-03-19T02:43:35.646Z,100896.47
2023-03-19T02:46:04.295Z,100904.22
2023-03-19T02:48:32.431Z,100899.81
2023-03-19T02:51:00.037Z,100893.00
2023-03-19T02:53:27.622Z,100893.94
2023-03-19T02:55:55.045Z,100894.69
2023-03-19T02:58:22.660Z,100888.66
2023-03-19T03:00:52.058Z,100893.53
2023-03-19T03:03:19.797Z,100890.44
2023-03-19T03:05:47.305Z,100880.94
2023-03-19T03:08:14.709Z,100880.94
2023-03-19T03:10:42.174Z,100886.97
2023-03-19T03:13:09.600Z,100890.47
2023-03-19T03:15:37.462Z,100877.59
2023-03-19T03:18:06.719Z,100885.28
2023-03-19T03:20:34.577Z,100886.09
2023-03-19T03:23:02.596Z,100893.00
2023-03-19T03:25:30.643Z,100889.59
2023-03-19T03:27:58.163Z,100899.91
2023-03-19T03:30:25.735Z,100908.66
2023-03-19T03:32:53.208Z,100915.53
2023-03-19T03:35:22.797Z,100934.50
2023-03-19T03:37:50.416Z,100940.66
2023-03-19T03:40:18.348Z,100942.38
2023-03-19T03:42:45.787Z,100939.88
2023-03-19T03:45:14.334Z,100939.88
2023-03-19T03:47:42.203Z,100950.63
2023-03-19T03:50:11.719Z,100938.63
2023-03-19T03:52:42.069Z,100953.13
2023-03-19T03:55:10.604Z,100950.41
2023-03-19T03:57:38.231Z,100939.13
2023-03-19T04:00:06.867Z,100942.94
2023-03-19T04:02:34.313Z,100940.31
2023-03-19T04:05:01.804Z,100950.50
2023-03-19T04:07:29.227Z,100938.59
2023-03-19T04:09:59.323Z,100950.66
2023-03-19T04:12:27.156Z,100947.28
2023-03-19T04:14:54.590Z,100956.72
2023-03-19T04:17:22.282Z,100956.56
2023-03-19T04:19:49.717Z,100956.50
2023-03-19T04:22:17.139Z,100961.94
2023-03-19T04:24:44.779Z,100965.34
2023-03-19T04:27:13.671Z,100962.69
2023-03-19T04:29:41.265Z,100967.88
2023-03-19T04:32:09.021Z,100975.75
2023-03-19T04:34:37.353Z,100981.69
2023-03-19T04:37:05.132Z,100988.97
2023-03-19T04:39:33.485Z,100979.78
2023-03-19T04:42:01.019Z,100990.28
2023-03-19T04:44:30.975Z,100990.44
2023-03-19T04:46:58.536Z,100981.59
2023-03-19T04:49:25.966Z,100991.25
2023-03-19T04:51:53.493Z,100991.06
2023-03-19T04:54:20.968Z,100993.56
2023-03-19T04:56:48.405Z,100983.44
2023-03-19T04:59:15.831Z,100986.09
2023-03-19T05:01:44.636Z,100998.66
2023-03-19T05:04:12.293Z,100984.34
2023-03-19T05:06:39.824Z,100980.00
2023-03-19T05:09:07.825Z,100977.38
2023-03-19T05:11:35.376Z,100964.38
2023-03-19T05:14:02.855Z,100961.00
2023-03-19T05:16:30.719Z,100964.47
2023-03-19T05:18:59.456Z,100957.47
2023-03-19T05:21:26.874Z,100979.56
2023-03-19T05:23:54.859Z,100988.19
2023-03-19T05:26:22.544Z,100997.06
2023-03-19T05:28:50.171Z,101003.84
2023-03-19T05:31:17.743Z,100995.38
2023-03-19T05:33:45.269Z,100995.19
2023-03-19T05:36:14.053Z,100981.16
2023-03-19T05:38:41.680Z,100965.59
2023-03-19T05:41:09.326Z,100929.88
2023-03-19T05:43:37.164Z,100930.09
2023-03-19T05:46:05.002Z,100923.28
2023-03-19T05:48:33.501Z,100937.78
2023-03-19T05:51:01.317Z,100936.00
2023-03-19T05:53:30.390Z,100937.75
2023-03-19T05:55:57.970Z,100922.09
2023-03-19T05:58:25.917Z,100916.97
2023-03-19T06:00:56.177Z,100920.72
2023-03-19T06:03:23.842Z,100930.13
2023-03-19T06:05:51.779Z,100921.16
2023-03-19T06:08:19.691Z,100919.38
2023-03-19T06:10:48.440Z,100922.22
2023-03-19T06:13:15.889Z,100927.53
2023-03-19T06:15:43.316Z,100930.25
2023-03-19T06:18:11.148Z,100926.31
2023-03-19T06:20:38.539Z,100927.28
2023-03-19T06:23:05.978Z,100929.59
2023-03-19T06:25:33.396Z,100933.25
2023-03-19T06:28:02.139Z,100933.31
2023-03-19T06:30:29.613Z,100940.81
2023-03-19T06:32:57.161Z,100942.41
2023-03-19T06:35:24.650Z,100949.41
2023-03-19T06:37:52.617Z,100945.13
2023-03-19T06:40:20.301Z,100955.47
2023-03-19T06:42:48.134Z,100965.00
2023-03-19T06:45:18.946Z,100984.88
2023-03-19T06:47:46.926Z,101004.72
2023-03-19T06:50:16.406Z,101017.66
2023-03-19T06:52:44.562Z,101015.06
2023-03-19T06:55:12.643Z,101025.41
2023-03-19T06:57:40.336Z,101017.53
2023-03-19T07:00:11.490Z,101036.38
2023-03-19T07:02:40.313Z,101073.56
2023-03-19T07:05:08.274Z,101101.22
2023-03-19T07:07:35.785Z,101111.13
2023-03-19T07:10:03.866Z,101094.19
2023-03-19T07:12:31.502Z,101081.56
2023-03-19T07:14:59.016Z,101082.94
2023-03-19T07:17:26.786Z,101108.56
2023-03-19T07:19:55.789Z,101133.56
2023-03-19T07:22:23.466Z,101116.16
2023-03-19T07:24:51.565Z,101108.38
2023-03-19T07:27:25.247Z,101089.75
2023-03-19T07:29:52.649Z,101074.59
2023-03-19T07:32:20.603Z,101064.50
2023-03-19T07:34:48.146Z,101029.44
2023-03-19T07:37:16.960Z,101021.13
2023-03-19T07:39:44.397Z,101025.38
2023-03-19T07:42:12.006Z,101024.13
2023-03-19T07:44:39.748Z,101024.41
2023-03-19T07:47:16.041Z,101021.56
2023-03-19T07:50:01.691Z,101008.66
2023-03-19T07:52:30.454Z,101009.09
2023-03-19T07:54:57.877Z,101013.59
2023-03-19T07:57:25.806Z,101031.69
2023-03-19T07:59:53.224Z,101036.97
2023-03-19T08:02:22.954Z,101024.09
2023-03-19T08:04:51.182Z,101030.09
2023-03-19T08:07:18.618Z,101033.66
2023-03-19T08:09:47.391Z,101030.19
2023-03-19T08:12:15.305Z,101027.13
2023-03-19T08:14:42.955Z,101040.03
2023-03-19T08:17:10.638Z,101044.66
2023-03-19T08:19:38.101Z,101050.78
2023-03-19T08:22:05.936Z,101065.41
2023-03-19T08:24:33.368Z,101075.94
2023-03-19T08:27:02.183Z,101087.00
2023-03-19T08:29:29.615Z,101088.84
2023-03-19T08:31:58.595Z,101105.22
2023-03-19T08:34:26.995Z,101110.31
2023-03-19T08:36:54.441Z,101122.47
2023-03-19T08:39:21.910Z,101107.56
2023-03-19T08:41:49.345Z,101114.84
2023-03-19T08:44:18.072Z,101100.47
2023-03-19T08:46:45.634Z,101097.06
2023-03-19T08:49:13.129Z,101104.03
2023-03-19T08:51:40.590Z,101102.53
2023-03-19T08:54:09.125Z,101104.16
2023-03-19T08:56:36.520Z,101110.66
2023-03-19T08:59:04.063Z,101098.00
2023-03-19T09:01:33.025Z,101091.88
2023-03-19T09:04:00.474Z,101079.81
2023-03-19T09:06:27.877Z,101067.69
2023-03-19T09:08:59.692Z,101074.34
2023-03-19T09:11:27.361Z,101076.44
2023-03-19T09:13:54.838Z,101078.22
2023-03-19T09:16:22.286Z,101072.00
2023-03-19T09:18:51.278Z,101062.56
2023-03-19T09:21:19.284Z,101059.41
2023-03-19T09:23:46.714Z,101066.22
2023-03-19T09:26:14.148Z,101057.16
2023-03-19T09:28:41.685Z,101055.84
2023-03-19T09:31:11.517Z,101049.97
2023-03-19T09:33:39.173Z,101051.50
2023-03-19T09:36:09.194Z,101049.50
2023-03-19T09:38:36.714Z,101052.50
2023-03-19T09:41:10.793Z,101041.63
2023-03-19T09:43:58.262Z,101048.81
2023-03-19T09:46:33.834Z,101043.53
2023-03-19T09:49:07.179Z,101034.28
2023-03-19T09:51:44.234Z,101029.72
2023-03-19T09:54:24.054Z,101035.03
2023-03-19T09:56:51.461Z,101027.28
2023-03-19T09:59:19.476Z,101021.34
2023-03-19T10:01:53.988Z,101023.53
2023-03-19T10:04:39.617Z,101022.81
2023-03-19T10:07:18.188Z,101016.78
2023-03-19T10:09:59.590Z,101022.81
2023-03-19T10:12:42.076Z,101029.66
2023-03-19T10:15:19.827Z,101024.56
2023-03-19T10:17:58.046Z,101023.75
2023-03-19T10:20:32.860Z,101025.44
2023-03-19T10:23:13.620Z,101018.50
2023-03-19T10:25:44.811Z,101023.44
2023-03-19T10:28:15.958Z,101026.94
2023-03-19T10:30:47.745Z,101022.53
2023-03-19T10:33:23.942Z,101026.88
2023-03-19T10:35:58.814Z,101034.84
2023-03-19T10:38:28.559Z,101033.00
2023-03-19T10:41:12.317Z,101028.78
2023-03-19T10:43:40.996Z,101031.22
2023-03-19T10:46:13.701Z,101026.88
2023-03-19T10:48:45.397Z,101027.91
2023-03-19T10:51:16.356Z,101034.13
2023-03-19T10:53:45.266Z,101025.28
2023-03-19T10:56:20.189Z,101025.78
2023-03-19T10:59:02.443Z,101021.19
2023-03-19T11:01:34.084Z,101026.53
2023-03-19T11:04:02.805Z,101019.47
2023-03-19T11:06:34.381Z,101025.53
2023-03-19T11:09:16.628Z,101027.59
2023-03-19T11:11:45.558Z,101030.00
2023-03-19T11:14:17.844Z,101041.16
2023-03-19T11:16:56.589Z,101022.91
2023-03-19T11:19:26.240Z,101029.81
2023-03-19T11:22:03.819Z,101035.94
2023-03-19T11:24:37.218Z,101028.34
2023-03-19T11:27:06.565Z,101028.47
2023-03-19T11:29:43.224Z,101035.47
2023-03-19T11:32:27.561Z,101030.88
2023-03-19T11:34:59.959Z,101028.19
2023-03-19T11:37:34.811Z,101025.63
2023-03-19T11:40:11.205Z,101025.53
2023-03-19T11:43:06.755Z,101019.41
2023-03-19T11:45:42.075Z,101033.50
2023-03-19T11:48:27.247Z,101029.00
2023-03-19T11:50:59.674Z,101027.22
2023-03-19T11:53:32.054Z,101028.13
2023-03-19T11:56:15.263Z,101025.44
2023-03-19T11:58:57.748Z,101022.84
2023-03-19T12:01:43.515Z,101026.69
2023-03-19T12:04:29.774Z,101027.00
2023-03-19T12:07:04.507Z,101022.34
2023-03-19T12:09:39.204Z,101022.16
2023-03-19T12:12:17.523Z,101025.75
2023-03-19T12:14:55.586Z,101018.59
2023-03-19T12:17:38.606Z,101021.16
2023-03-19T12:20:21.462Z,101023.81
2023-03-19T12:23:06.790Z,101017.59
2023-03-19T12:25:46.511Z,101023.47
2023-03-19T12:28:23.883Z,101019.06
2023-03-19T12:31:08.852Z,101012.13
2023-03-19T12:33:45.787Z,101015.72
2023-03-19T12:36:18.236Z,101012.91
2023-03-19T12:38:51.027Z,101009.06
2023-03-19T12:41:22.279Z,101003.53
2023-03-19T12:43:58.118Z,101003.34
2023-03-19T12:46:32.197Z,101004.09
2023-03-19T12:49:04.390Z,101010.91
2023-03-19T12:51:36.463Z,100998.53
2023-03-19T12:54:09.260Z,100983.81
2023-03-19T12:56:44.899Z,100990.75
2023-03-19T12:59:31.727Z,100993.38
2023-03-19T13:02:02.781Z,101003.16
2023-03-19T13:04:34.115Z,100996.00
2023-03-19T13:07:05.411Z,100996.88
2023-03-19T13:09:37.809Z,100993.31
2023-03-19T13:12:10.482Z,100995.91
2023-03-19T13:14:50.084Z,100996.91
2023-03-19T13:17:25.374Z,100987.34
2023-03-19T13:19:54.376Z,100990.72
2023-03-19T13:22:24.037Z,100988.06
2023-03-19T13:24:53.847Z,100992.56
2023-03-19T13:27:24.749Z,100988.84
2023-03-19T13:30:03.939Z,100994.06
2023-03-19T13:32:39.599Z,100990.09
2023-03-19T13:35:32.434Z,100983.75
2023-03-19T13:38:03.022Z,100991.69
2023-03-19T13:40:40.674Z,100988.72
2023-03-19T13:43:41.667Z,100983.03
2023-03-19T13:46:36.291Z,100980.09
2023-03-19T13:49:11.364Z,100972.22
2023-03-19T13:51:39.279Z,100976.38
2023-03-19T13:54:16.310Z,100973.75
2023-03-19T13:57:05.591Z,100977.00
2023-03-19T13:59:34.224Z,100976.38
2023-03-19T14:02:03.941Z,100971.41
2023-03-19T14:04:32.875Z,100965.84
2023-03-19T14:07:11.578Z,100975.94
2023-03-19T14:09:43.093Z,100975.28
2023-03-19T14:12:26.314Z,100962.34
2023-03-19T14:14:57.672Z,100965.53
2023-03-19T14:17:32.038Z,100956.72
2023-03-19T14:20:09.227Z,100948.66
2023-03-19T14:22:39.836Z,100953.94
2023-03-19T14:25:19.758Z,100958.78
2023-03-19T14:27:49.622Z,100945.44
2023-03-19T14:30:27.599Z,100954.84
2023-03-19T14:33:01.145Z,100953.69
2023-03-19T14:35:29.803Z,100944.38
2023-03-19T14:37:57.715Z,100952.28
2023-03-19T14:40:28.062Z,100947.63
2023-03-19T14:43:04.121Z,100948.41
2023-03-19T14:45:49.182Z,100945.91
2023-03-19T14:48:57.723Z,100944.25
2023-03-19T14:51:46.094Z,100943.34
2023-03-19T14:54:24.641Z,100948.31
2023-03-19T14:56:52.192Z,100946.91
2023-03-19T14:59:19.786Z,100945.13
2023-03-19T15:01:52.168Z,100942.41
2023-03-19T15:04:22.743Z,100935.63
2023-03-19T15:06:55.840Z,100942.34
2023-03-19T15:09:29.778Z,100950.00
2023-03-19T15:12:26.047Z,100951.38
2023-03-19T15:15:20.071Z,100943.25
2023-03-19T15:18:03.007Z,100940.34
2023-03-19T15:20:38.274Z,100944.59
2023-03-19T15:23:19.987Z,100937.09
2023-03-19T15:25:56.887Z,100929.44
2023-03-19T15:28:26.432Z,100939.19
2023-03-19T15:31:05.926Z,100936.13
2023-03-19T15:33:44.080Z,100929.16
2023-03-19T15:36:19.949Z,100933.16
2023-03-19T15:38:51.313Z,100931.91
2023-03-19T15:41:19.860Z,100940.94
2023-03-19T15:43:47.832Z,100934.59
2023-03-19T15:46:21.568Z,100937.38
2023-03-19T15:48:53.223Z,100940.72
2023-03-19T15:51:25.243Z,100939.00
2023-03-19T15:53:53.807Z,100938.88
2023-03-19T15:56:22.040Z,100939.19
2023-03-19T15:58:53.442Z,100942.53
2023-03-19T16:01:21.387Z,100945.00
2023-03-19T16:03:53.018Z,100946.41
2023-03-19T16:06:26.946Z,100944.59
2023-03-19T16:08:56.830Z,100939.28
2023-03-19T16:11:29.988Z,100944.84
2023-03-19T16:13:59.093Z,100946.53
2023-03-19T16:16:29.895Z,100940.38
2023-03-19T16:18:58.876Z,100952.66
2023-03-19T16:21:36.070Z,100951.38
2023-03-19T16:24:07.517Z,100952.88
2023-03-19T16:26:39.040Z,100954.63
2023-03-19T16:29:16.574Z,100959.22
2023-03-19T16:31:46.870Z,100951.88
2023-03-19T16:34:26.184Z,100958.88
2023-03-19T16:36:55.428Z,100961.25
2023-03-19T16:39:32.833Z,100960.41
2023-03-19T16:42:17.039Z,100968.50
2023-03-19T16:44:48.286Z,100973.59
2023-03-19T16:47:16.732Z,100969.09
2023-03-19T16:49:44.181Z,100969.31
2023-03-19T16:52:16.220Z,100969.25
2023-03-19T16:54:44.186Z,100970.03
2023-03-19T16:57:14.406Z,100969.31
2023-03-19T16:59:41.866Z,100971.16
2023-03-19T17:02:12.497Z,100976.38
2023-03-19T17:04:40.078Z,100973.03
2023-03-19T17:07:08.200Z,100981.91
2023-03-19T17:09:37.656Z,100988.91
2023-03-19T17:12:08.157Z,100985.44
2023-03-19T17:14:36.125Z,100978.09
2023-03-19T17:17:04.118Z,100978.81
2023-03-19T17:19:36.297Z,100985.53
2023-03-19T17:22:03.866Z,100987.81
2023-03-19T17:24:33.332Z,100980.88
2023-03-19T17:27:04.277Z,100984.13
2023-03-19T17:29:33.254Z,100994.56
2023-03-19T17:32:02.503Z,101003.28
2023-03-19T17:34:31.890Z,101004.09
2023-03-19T17:37:01.580Z,100999.81
2023-03-19T17:39:31.424Z,101000.78
2023-03-19T17:41:59.258Z,100998.22
2023-03-19T17:44:28.089Z,100997.28
2023-03-19T17:46:56.959Z,101006.88
2023-03-19T17:49:26.293Z,101006.34
2023-03-19T17:51:53.761Z,101008.94
2023-03-19T17:54:21.325Z,101014.09
2023-03-19T17:56:49.486Z,101021.06
2023-03-19T17:59:16.911Z,101025.06
2023-03-19T18:01:47.196Z,101022.41
2023-03-19T18:04:17.009Z,101022.97
2023-03-19T18:06:47.219Z,101022.03
2023-03-19T18:09:20.187Z,101022.03
2023-03-19T18:11:47.581Z,101024.56
2023-03-19T18:14:15.058Z,101027.13
2023-03-19T18:16:43.150Z,101028.75
2023-03-19T18:19:20.995Z,101033.00
2023-03-19T18:21:48.412Z,101030.38
2023-03-19T18:24:16.171Z,101035.66
2023-03-19T18:26:43.585Z,101036.66
2023-03-19T18:29:11.008Z,101038.31
2023-03-19T18:31:38.470Z,101041.72
2023-03-19T18:34:09.628Z,101042.59
2023-03-19T18:36:39.595Z,101046.84
2023-03-19T18:39:08.109Z,101043.34
2023-03-19T18:41:35.544Z,101045.41
2023-03-19T18:44:03.594Z,101038.28
2023-03-19T18:46:32.965Z,101040.13
2023-03-19T18:49:02.517Z,101046.16
2023-03-19T18:51:30.056Z,101044.44
2023-03-19T18:53:59.067Z,101043.50
2023-03-19T18:56:29.129Z,101041.25
2023-03-19T18:58:58.554Z,101046.50
2023-03-19T19:01:27.383Z,101039.50
2023-03-19T19:03:55.942Z,101052.03
2023-03-19T19:06:39.992Z,101064.22
2023-03-19T19:09:14.291Z,101058.81
2023-03-19T19:11:45.293Z,101050.81
2023-03-19T19:14:20.275Z,101057.31
2023-03-19T19:16:47.866Z,101045.75
2023-03-19T19:19:17.679Z,101054.59
2023-03-19T19:21:45.083Z,101057.03
2023-03-19T19:24:14.925Z,101063.22
2023-03-19T19:26:44.140Z,101069.41
2023-03-19T19:29:14.614Z,101070.31
2023-03-19T19:31:42.437Z,101060.69
2023-03-19T19:34:13.522Z,101065.69
2023-03-19T19:36:40.989Z,101078.06
2023-03-19T19:39:08.509Z,101082.34
2023-03-19T19:41:38.063Z,101082.34
2023-03-19T19:44:06.620Z,101074.38
2023-03-19T19:46:34.107Z,101081.16
2023-03-19T19:49:01.959Z,101081.25
2023-03-19T19:51:29.439Z,101090.97
2023-03-19T19:53:57.459Z,101083.97
2023-03-19T19:56:26.633Z,101094.53
2023-03-19T19:58:57.405Z,101083.88
2023-03-19T20:01:27.336Z,101082.09
2023-03-19T20:03:54.923Z,101090.84
2023-03-19T20:06:22.414Z,101091.75
2023-03-19T20:08:50.158Z,101093.56
2023-03-19T20:11:19.954Z,101091.63
2023-03-19T20:13:52.503Z,101083.97
2023-03-19T20:16:23.083Z,101091.78
2023-03-19T20:18:53.530Z,101089.31
2023-03-19T20:21:22.511Z,101090.06
2023-03-19T20:23:52.871Z,101080.69
2023-03-19T20:26:22.794Z,101086.63
2023-03-19T20:28:51.080Z,101088.44
2023-03-19T20:31:27.244Z,101095.41
2023-03-19T20:33:54.784Z,101091.91
2023-03-19T20:36:22.477Z,101094.28
2023-03-19T20:38:50.831Z,101097.97
2023-03-19T20:41:21.195Z,101098.03
2023-03-19T20:43:50.424Z,101097.81
2023-03-19T20:46:20.290Z,101095.91
2023-03-19T20:48:49.847Z,101097.09
2023-03-19T20:51:21.474Z,101099.53
2023-03-19T20:53:51.262Z,101103.75
2023-03-19T20:56:24.394Z,101101.13
2023-03-19T20:58:52.034Z,101107.44
2023-03-19T21:01:19.711Z,101102.13
2023-03-19T21:03:47.173Z,101108.16
2023-03-19T21:06:18.853Z,101100.31
2023-03-19T21:08:48.609Z,101102.97
2023-03-19T21:11:18.865Z,101110.78
2023-03-19T21:13:47.907Z,101101.25
2023-03-19T21:16:18.460Z,101104.75
2023-03-19T21:18:49.526Z,101105.66
2023-03-19T21:21:20.078Z,101113.56
2023-03-19T21:23:54.538Z,101107.41
2023-03-19T21:26:22.945Z,101104.84
2023-03-19T21:28:53.160Z,101105.75
2023-03-19T21:31:21.699Z,101101.41
2023-03-19T21:33:50.468Z,101099.69
2023-03-19T21:36:20.161Z,101103.97
2023-03-19T21:38:49.068Z,101106.53
2023-03-19T21:41:23.688Z,101104.81
2023-03-19T21:43:56.105Z,101107.53
2023-03-19T21:46:26.151Z,101097.97
2023-03-19T21:48:54.356Z,101098.00
2023-03-19T21:51:25.052Z,101097.19
2023-03-19T21:53:52.711Z,101099.75
2023-03-19T21:56:23.012Z,101100.50
2023-03-19T21:58:52.018Z,101100.50
2023-03-19T22:01:21.774Z,101103.94
2023-03-19T22:03:49.273Z,101098.78
2023-03-19T22:06:16.994Z,101102.25
2023-03-19T22:08:48.172Z,101099.75
2023-03-19T22:11:18.458Z,101099.72
2023-03-19T22:13:46.200Z,101098.81
2023-03-19T22:16:19.690Z,101097.13
2023-03-19T22:18:47.599Z,101094.59
2023-03-19T22:21:16.389Z,101089.34
2023-03-19T22:23:43.823Z,101094.53
2023-03-19T22:26:28.554Z,101094.59
2023-03-19T22:28:56.643Z,101098.06
2023-03-19T22:31:24.476Z,101097.97
2023-03-19T22:33:52.186Z,101094.53
2023-03-19T22:36:19.700Z,101096.25
2023-03-19T22:38:48.712Z,101099.72
2023-03-19T22:41:19.258Z,101099.72
2023-03-19T22:43:48.494Z,101098.91
2023-03-19T22:46:18.482Z,101095.44
2023-03-19T22:48:49.995Z,101096.31
2023-03-19T22:51:21.188Z,101095.41
2023-03-19T22:53:49.204Z,101094.53
2023-03-19T22:56:17.712Z,101081.56
2023-03-19T22:58:46.757Z,101095.44
2023-03-19T23:01:31.826Z,101086.75
2023-03-19T23:04:15.045Z,101089.34
2023-03-19T23:06:42.623Z,101088.47
2023-03-19T23:09:13.798Z,101089.34
2023-03-19T23:11:41.204Z,101083.25
2023-03-19T23:14:18.602Z,101084.13
2023-03-19T23:19:29.082Z,101091.94
2023-03-19T23:21:57.827Z,101090.22
2023-03-19T23:24:25.940Z,101092.81
2023-03-19T23:26:55.386Z,101085.00
2023-03-19T23:29:26.831Z,101084.19
2023-03-19T23:31:54.448Z,101095.44
2023-03-19T23:34:23.154Z,101093.75
2023-03-19T23:36:51.108Z,101085.97
2023-03-19T23:39:18.765Z,101092.00
2023-03-19T23:41:49.327Z,101085.97
2023-03-19T23:44:19.403Z,101091.13
2023-03-19T23:46:49.363Z,101087.69
2023-03-19T23:49:24.695Z,101085.97
2023-03-19T23:51:53.686Z,101089.38
2023-03-19T23:54:30.134Z,101091.16
2023-03-19T23:56:59.662Z,101091.13
2023-03-19T23:59:30.356Z,101100.66
